Friday, April 20, 2018, 6:43 AM EDT
Back to Local

KSYR, Syracuse Hancock International Airport

Location: Syracuse, NY, United States Lat: 43.117
Local Time: 6:43 AM EDT (10:43 GMT) Lon: -76.1
Time Zone: US/Eastern Elev: 410 ft

Show me the last for .
Show Coded

Time T Td Feel RH Dir Speed Gust Alt SLP Vis Weather Sky Remarks
2018-04-20 05:54 31 24 22 75 300° 12 - 30.17 30.17 9 OVC046 1-hr Precip Total: Trace
2018-04-20 04:54 31 25 22 78 310° 12 - 30.15 30.16 9 -SN SCT031 OVC043 1-hr Precip Total: Trace
6-hr Precip Total (5am): 0.00"
2018-04-20 03:54 31 25 22 78 310° 10 - 30.13 30.14 9 -SN SCT034 OVC043 1-hr Precip Total: Trace
2018-04-20 02:54 31 25 22 78 310° 12 - 30.12 30.12 10 BKN034 OVC044 1-hr Precip Total: Trace
2018-04-20 01:54 32 25 23 74 310° 12 - 30.10 30.11 9 -SN OVC041 1-hr Precip Total: Trace
6-hr Precip Total (2am): 0.02"
Snow depth: 1"
6-hr Min Temp (2am): 30.0°F
6-hr Max Temp (2am): 32.0°F
2018-04-20 00:54 31 26 21 81 300° 13 - 30.10 30.10 9 -SN FEW031 BKN043 OVC080 1-hr Precip Total: Trace
24-hr Min Temp (1am): 30.0°F
24-hr Max Temp (1am): 37.9°F
2018-04-19 23:54 31 28 23 88 300° 8 - 30.08 30.09 10 SCT037 BKN095 BKN180 None
2018-04-19 22:54 30 29 21 95 300° 12 - 30.07 30.08 9 BKN034 1-hr Precip Total: 0.01"
6-hr Precip Total (11pm): 0.02"
2018-04-19 22:38 30 30 18 100 310° 13 20 30.07 - 2 -SN BR BKN023 BKN033 OVC070 None
2018-04-19 22:15 30 30 21 100 290° 10 - 30.07 - 5 -SN BR BKN030 BKN050 OVC075 1-hr Precip Total: 0.01"
2018-04-19 22:02 31 31 22 100 300° 10 - 30.07 - 2 -SN BR FEW015 BKN030 OVC055 1-hr Precip Total: Trace
2018-04-19 21:54 31 31 23 100 290° 8 - 30.06 30.07 9 FEW013 BKN035 OVC080 1-hr Precip Total: Trace
2018-04-19 21:48 30 30 23 100 300° 8 - 30.06 - 7 -SN FEW012 BKN031 OVC080 1-hr Precip Total: Trace
2018-04-19 20:56 31 31 24 100 290° 7 - 30.04 - 2 -SN BR FEW009 BKN026 OVC080 1-hr Precip Total: Trace
2018-04-19 20:54 31 31 23 100 300° 8 - 30.04 30.04 1 -SN BR SCT015 BKN022 OVC040 1-hr Precip Total: 0.01"
2018-04-19 20:46 32 30 19 92 320° 13 22 30.03 - 1 -SN BR SCT022 OVC060 1-hr Precip Total: Trace
2018-04-19 20:01 32 31 24 95 270° 9 - 30.01 - 10 SCT022 OVC060 None
2018-04-19 19:54 32 31 21 95 270° 10 17 30.00 30.01 10 BKN016 OVC027 1-hr Precip Total: 0.01"
6-hr Precip Total (8pm): 0.03"
6-hr Min Temp (8pm): 30.9°F
6-hr Max Temp (8pm): 37.0°F
2018-04-19 19:26 31 31 22 100 280° 10 - 29.99 - 3 -SN BR BKN016 OVC027 1-hr Precip Total: 0.01"
2018-04-19 18:54 31 31 17 100 290° 15 25 29.98 29.98 2 -SN BR BKN016 OVC022 1-hr Precip Total: 0.01"
2018-04-19 18:18 34 32 25 93 300° 12 - 29.96 - 2 -SN BR BKN016 OVC022 None
2018-04-19 17:57 34 34 26 100 310° 10 - 29.95 - 1 -SN BR SCT012 OVC021 None
2018-04-19 17:54 33 33 24 100 310° 12 - 29.95 29.95 2 -SN BR BKN020 OVC030 1-hr Precip Total: 0.01"
2018-04-19 17:03 34 33 25 96 290° 13 - 29.92 - 2 -SN BR BKN020 OVC030 1-hr Precip Total: Trace
2018-04-19 17:01 34 34 25 100 300° 12 - 29.92 - 2 -SN BR SCT013 BKN023 OVC035 None
2018-04-19 16:54 34 33 25 96 290° 14 - 29.92 29.92 2 -SN BR SCT020 OVC030 1-hr Precip Total: Trace
6-hr Precip Total (5pm): 0.00"
2018-04-19 15:56 35 32 25 88 280° 16 - 29.90 - 2 -SN BR SCT020 OVC030 Variable visibility
1-hr Precip Total: Trace
2018-04-19 15:54 35 32 23 88 300° 20 25 29.90 29.90 3 -SN BR SCT020 OVC030 1-hr Precip Total: Trace
2018-04-19 14:54 35 31 23 84 300° 20 24 29.89 29.89 6 -SN BR SCT020 OVC030 1-hr Precip Total: Trace
2018-04-19 13:54 34 30 25 85 290° 14 - 29.86 29.86 3 -SN BR SCT020 OVC030 1-hr Precip Total: Trace
6-hr Precip Total (2pm): 0.00"
6-hr Min Temp (2pm): 32.0°F
6-hr Max Temp (2pm): 37.9°F
2018-04-19 13:49 34 28 24 80 300° 14 - 29.86 - 1 -SN BR SCT020 OVC030 1-hr Precip Total: Trace
2018-04-19 12:54 36 31 26 81 300° 16 - 29.84 29.84 6 -SN FEW020 SCT028 OVC040 1-hr Precip Total: Trace
2018-04-19 11:54 35 31 26 84 310° 14 - 29.82 29.82 9 -SN FEW020 SCT028 OVC060 1-hr Precip Total: Trace
2018-04-19 11:44 36 32 28 85 310° 12 - 29.81 - 9 -SN FEW016 SCT049 OVC060 1-hr Precip Total: Trace
2018-04-19 11:27 36 33 24 89 300° 15 23 29.81 - 9 -SN BKN016 BKN024 OVC060 1-hr Precip Total: Trace
2018-04-19 10:54 34 32 27 92 310° 9 - 29.81 29.81 5 -SN BR BKN013 BKN018 OVC035 1-hr Precip Total: Trace
6-hr Precip Total (11am): 0.00"
2018-04-19 10:16 34 34 25 100 330° 13 - 29.80 - 6 -SN BR BKN010 BKN015 OVC019 1-hr Precip Total: Trace
2018-04-19 10:07 33 33 25 100 320° 10 - 29.79 - 4 -SN BR SCT010 OVC016 1-hr Precip Total: Trace
2018-04-19 09:54 33 33 23 100 320° 16 - 29.78 29.78 2 -SN BR SCT008 OVC014 1-hr Precip Total: Trace
2018-04-19 09:40 33 33 23 100 320° 14 - 29.77 - 2 -SN BR SCT008 BKN014 OVC019 1-hr Precip Total: Trace
2018-04-19 09:32 34 33 25 96 310° 13 - 29.77 - 2 -SNDZ BR FEW008 BKN013 OVC020 1-hr Precip Total: Trace
2018-04-19 08:54 34 33 25 96 340° 13 - 29.76 29.75 10 BKN010 OVC017 1-hr Precip Total: Trace
2018-04-19 08:38 34 34 25 100 330° 12 - 29.75 - 10 BKN010 OVC029 None
2018-04-19 08:30 34 33 27 96 330° 9 - 29.75 - 9 -SN BKN008 BKN012 OVC024 1-hr Precip Total: Trace
2018-04-19 08:15 33 33 25 100 320° 9 - 29.75 - 4 -SN BR BKN007 OVC012 1-hr Precip Total: Trace
2018-04-19 08:03 32 32 25 100 330° 8 - 29.75 - 2 -SN BR OVC007 1-hr Precip Total: Trace
2018-04-19 07:54 32 32 25 100 310° 8 - 29.75 29.75 1 -SN BR OVC005 1-hr Precip Total: 0.01"
6-hr Precip Total (8am): 0.03"
24-hr Precip Total (8am): 0.03"
6-hr Min Temp (8am): 32.0°F
6-hr Max Temp (8am): 34.0°F
2018-04-19 07:11 32 32 26 100 250° 7 - 29.75 - 2 -SN BR BKN005 OVC018 1-hr Precip Total: Trace
2018-04-19 07:03 32 32 26 100 240° 6 - 29.74 - 1 -SN BR SCT005 BKN019 OVC027 1-hr Precip Total: Trace
2018-04-19 06:54 32 32 26 100 240° 6 - 29.75 29.75 2 -SN BR FEW005 BKN019 OVC027 1-hr Precip Total: 0.02"
2018-04-19 06:49 32 32 26 100 250° 7 - 29.75 - 2 -SN BR FEW005 BKN019 OVC027 1-hr Precip Total: 0.02"

Support USWX by starting your Amazon purchase here.